Terminal Aerodrome Forecast
Issued by NWS Flagstaff, AZ

Home | Current Version | Previous Version | Text Only | Print | Product List | Glossary On
Versions: 1 2 3 4 5 6 7 8 9 10 11 12 13 14
000
FTUS45 KFGZ 260907 AAA
TAFINW
TAF AMD
KINW 260907Z 2609/2706 27007KT P6SM OVC080
     FM261200 VRB05KT P6SM SCT040 BKN070
     FM262200 21012KT P6SM SCT040 BKN070=

USA.gov is the U.S. government's official web portal to all federal, state and local government web resources and services.